Nearby METAR Reports

 

EGUW - Wattisham Raf, United Kingdom
Distance from station: SW 12mi, 19km
Updated: 20/02/2019 01:50
Overcast
Overcast
 Wind from SSW
Wind: SSW 9 mph , 15 km/h
Temperature: 5°C
Wind Chill: 2°C
Dew Point: 5°C
Humidity: 100%
Barometer: 1018 hPa
Clouds: Overcast
Visibility: 6 miles , 10 km
Cloud details: Overcast 2438 m
2019/02/20 01:50 EGUW 200150Z AUTO 20008KT 9999 OVC080/// 05/05 Q1018
EGUL - Lakenheath Raf, United Kingdom
Distance from station: WNW 29mi, 47km
Updated: 19/02/2019 22:56
NOT Current
Partly cloudy
Partly cloudy
 Wind from SSW
Wind: SSW 13 mph , 20 km/h
Temperature: 8°C
Wind Chill: 4°C
Dew Point: 4°C
Humidity: 76%
Barometer: 1017.6 hPa
Clouds: Partly cloudy
Visibility: 6 miles , 10 km
Cloud details: Partly cloudy 3658 m
Partly cloudy 4267 m
2019/02/19 22:56 EGUL 192256Z AUTO 21011KT 9999 SCT120 SCT140 08/04 A3005 RMK AO2 SLP179 T00750039 $
 
EGUN - Mildenhall Raf, United Kingdom
Distance from station: WNW 32mi, 51km
Updated: 19/02/2019 22:56
NOT Current
Mostly cloudy
Mostly cloudy
 
Temperature: 7°C
Dew Point: 7°C
Humidity: 100%
Barometer: 1017.6 hPa
Clouds: Mostly cloudy
Visibility: 6 miles , 10 km
Cloud details: Mostly cloudy 3962 m
2019/02/19 22:56 EGUN 192256Z AUTO M 9999 BKN130 07/07 A3005 RMK AO2 SLP179 T00720072 $
EGSH - Norwich Wea Cntr, United Kingdom
Distance from station: N 32mi, 52km
Updated: 20/02/2019 01:50
Clear
Clear
 Wind from SSW
Wind: SSW 13 mph , 20 km/h
Temperature: 7°C
Wind Chill: 4°C
Dew Point: 5°C
Humidity: 87%
Barometer: 1017 hPa
Clouds: Clear
Visibility: 6 miles , 10 km
2019/02/20 01:50 EGSH 200150Z AUTO 21011KT 9999 NCD 07/05 Q1017
 
EGYM - Marham Raf, United Kingdom
Distance from station: NW 39mi, 62km
Updated: 20/02/2019 01:50
Clear
Clear
 Wind from S
Wind: S 14 mph , 22 km/h
Temperature: 7°C
Wind Chill: 4°C
Dew Point: 5°C
Humidity: 87%
Barometer: 1017 hPa
Summary: Clear
Visibility: greater than 7 miles , 10 km
2019/02/20 01:50 EGYM 200150Z 19012KT CAVOK 07/05 Q1017 BLU
EGSC - Cambridge, United Kingdom
Distance from station: W 43mi, 69km
Updated: 19/02/2019 17:50
NOT Current
Few Clouds
Few Clouds
 Wind from SSW
Wind: SSW 6 mph , 9 km/h
Temperature: 8°C
Wind Chill: 6°C
Dew Point: 2°C
Humidity: 66%
Barometer: 1017 hPa
Clouds: Few Clouds
Visibility: 6 miles , 10 km
Cloud details: Few Clouds 1372 m
2019/02/19 17:50 EGSC 191750Z 20005KT 9999 FEW045 08/02 Q1017
 
EGSS - Stansted Airport, United Kingdom
Distance from station: WSW 47mi, 76km
Updated: 20/02/2019 01:50
Mostly cloudy
Mostly cloudy
 Wind from S
Wind: S 7 mph , 11 km/h
Temperature: 6°C
Wind Chill: 4°C
Dew Point: 4°C
Humidity: 87%
Barometer: 1018 hPa
Clouds: Mostly cloudy
Visibility: 6 miles , 10 km
Cloud details: Mostly cloudy 1189 m
2019/02/20 01:50 EGSS 200150Z AUTO 18006KT 9999 BKN039 06/04 Q1018
EGMC - Southend-On-Sea, United Kingdom
Distance from station: SSW 50mi, 80km
Updated: 19/02/2019 21:50
NOT Current
Few Clouds
Few Clouds
 Wind from SSW
Wind: SSW 12 mph , 19 km/h
Temperature: 7°C
Wind Chill: 4°C
Dew Point: 4°C
Humidity: 81%
Barometer: 1019 hPa
Clouds: Few Clouds
Visibility: 6 miles , 10 km
Cloud details: Few Clouds 914 m
2019/02/19 21:50 EGMC 192150Z 21010KT 9999 FEW030 07/04 Q1019